createdAt,value
2023-02-11T00:02:10.944Z,2.55
2023-02-11T00:04:41.652Z,2.55
2023-02-11T00:07:12.319Z,2.53
2023-02-11T00:09:43.010Z,2.53
2023-02-11T00:12:14.007Z,2.55
2023-02-11T00:14:44.651Z,2.58
2023-02-11T00:17:15.455Z,2.57
2023-02-11T00:19:49.058Z,2.57
2023-02-11T00:22:20.374Z,2.58
2023-02-11T00:24:51.109Z,2.56
2023-02-11T00:27:21.899Z,2.58
2023-02-11T00:29:53.295Z,2.59
2023-02-11T00:32:23.947Z,2.60
2023-02-11T00:34:54.920Z,2.60
2023-02-11T00:37:25.725Z,2.62
2023-02-11T00:39:56.621Z,2.65
2023-02-11T00:42:27.247Z,2.65
2023-02-11T00:44:57.969Z,2.68
2023-02-11T00:47:28.755Z,2.68
2023-02-11T00:49:59.419Z,2.69
2023-02-11T00:52:30.097Z,2.68
2023-02-11T00:55:00.843Z,2.67
2023-02-11T00:57:31.464Z,2.68
2023-02-11T01:00:02.756Z,2.70
2023-02-11T01:02:33.917Z,2.71
2023-02-11T01:05:06.364Z,2.71
2023-02-11T01:07:37.052Z,2.70
2023-02-11T01:10:14.517Z,2.69
2023-02-11T01:12:45.412Z,2.66
2023-02-11T01:15:18.664Z,2.66
2023-02-11T01:17:49.291Z,2.65
2023-02-11T01:20:22.992Z,2.62
2023-02-11T01:22:53.657Z,2.60
2023-02-11T01:25:24.316Z,2.59
2023-02-11T01:27:54.900Z,2.59
2023-02-11T01:30:32.084Z,2.58
2023-02-11T01:33:02.816Z,2.58
2023-02-11T01:35:33.478Z,2.56
2023-02-11T01:38:04.111Z,2.54
2023-02-11T01:40:35.014Z,2.54
2023-02-11T01:43:05.649Z,2.52
2023-02-11T01:45:57.367Z,2.51
2023-02-11T01:48:31.298Z,2.49
2023-02-11T01:51:06.102Z,2.47
2023-02-11T01:53:38.550Z,2.47
2023-02-11T01:56:10.632Z,2.47
2023-02-11T01:58:44.192Z,2.49
2023-02-11T02:01:20.134Z,2.51
2023-02-11T02:03:56.958Z,2.53
2023-02-11T02:06:33.225Z,2.54
2023-02-11T02:09:07.174Z,2.57
2023-02-11T02:11:38.106Z,2.60
2023-02-11T02:14:08.739Z,2.63
2023-02-11T02:16:39.841Z,2.69
2023-02-11T02:19:24.772Z,2.72
2023-02-11T02:22:22.076Z,2.73
2023-02-11T02:25:09.553Z,2.73
2023-02-11T02:27:55.399Z,2.73
2023-02-11T02:30:55.973Z,2.72
2023-02-11T02:33:42.811Z,2.72
2023-02-11T02:36:19.596Z,2.71
2023-02-11T02:38:55.714Z,2.72
2023-02-11T02:41:30.151Z,2.71
2023-02-11T02:44:01.108Z,2.71
2023-02-11T02:46:34.628Z,2.72
2023-02-11T02:49:12.360Z,2.74
2023-02-11T02:52:08.129Z,2.75
2023-02-11T02:54:56.179Z,2.76
2023-02-11T02:57:35.996Z,2.75
2023-02-11T03:00:28.258Z,2.76
2023-02-11T03:03:14.967Z,2.78
2023-02-11T03:05:54.571Z,2.77
2023-02-11T03:08:32.860Z,2.75
2023-02-11T03:11:06.162Z,2.75
2023-02-11T03:13:39.316Z,2.75
2023-02-11T03:16:13.566Z,2.75
2023-02-11T03:18:48.333Z,2.73
2023-02-11T03:21:20.515Z,2.73
2023-02-11T03:23:53.224Z,2.71
2023-02-11T03:26:28.945Z,2.69
2023-02-11T03:29:08.442Z,2.70
2023-02-11T03:31:47.157Z,2.73
2023-02-11T03:34:26.042Z,2.72
2023-02-11T03:37:00.541Z,2.70
2023-02-11T03:39:35.199Z,2.68
2023-02-11T03:42:09.058Z,2.70
2023-02-11T03:44:43.939Z,2.69
2023-02-11T03:47:19.136Z,2.67
2023-02-11T03:49:51.822Z,2.68
2023-02-11T03:52:24.869Z,2.70
2023-02-11T03:55:00.168Z,2.68
2023-02-11T03:57:31.008Z,2.68
2023-02-11T04:00:01.876Z,2.68
2023-02-11T04:02:35.669Z,2.70
2023-02-11T04:05:07.753Z,2.70
2023-02-11T04:07:38.517Z,2.69
2023-02-11T04:10:12.893Z,2.69
2023-02-11T04:12:43.511Z,2.72
2023-02-11T04:15:14.113Z,2.74
2023-02-11T04:17:44.926Z,2.76
2023-02-11T04:20:15.587Z,2.76
2023-02-11T04:22:46.270Z,2.77
2023-02-11T04:25:16.943Z,2.80
2023-02-11T04:27:47.913Z,2.84
2023-02-11T04:30:17.127Z,2.84
2023-02-11T04:32:47.845Z,2.86
2023-02-11T04:35:18.554Z,2.86
2023-02-11T04:37:49.293Z,2.84
2023-02-11T04:40:20.397Z,2.81
2023-02-11T04:42:49.491Z,2.82
2023-02-11T04:45:20.157Z,2.83
2023-02-11T04:47:50.825Z,2.82
2023-02-11T04:50:21.546Z,2.83
2023-02-11T04:52:52.219Z,2.83
2023-02-11T04:55:22.875Z,2.87
2023-02-11T04:57:54.047Z,2.87
2023-02-11T05:00:23.157Z,2.86
2023-02-11T05:02:53.869Z,2.88
2023-02-11T05:05:24.892Z,2.90
2023-02-11T05:07:55.541Z,2.90
2023-02-11T05:10:26.190Z,2.92
2023-02-11T05:12:56.960Z,2.94
2023-02-11T05:15:27.726Z,2.93
2023-02-11T05:17:58.453Z,2.95
2023-02-11T05:20:29.127Z,2.99
2023-02-11T05:22:59.786Z,3.02
2023-02-11T05:25:30.413Z,3.03
2023-02-11T05:28:01.266Z,3.02
2023-02-11T05:30:32.079Z,3.02
2023-02-11T05:33:02.779Z,3.04
2023-02-11T05:35:33.453Z,3.08
2023-02-11T05:38:04.192Z,3.10
2023-02-11T05:40:34.873Z,3.10
2023-02-11T05:43:05.510Z,3.09
2023-02-11T05:45:36.219Z,3.08
2023-02-11T05:48:07.173Z,3.08
2023-02-11T05:50:37.851Z,3.08
2023-02-11T05:53:08.735Z,3.11
2023-02-11T05:55:38.174Z,3.11
2023-02-11T05:58:08.994Z,3.08
2023-02-11T06:00:39.809Z,3.09
2023-02-11T06:03:10.489Z,3.07
2023-02-11T06:05:42.224Z,3.08
2023-02-11T06:08:13.286Z,3.10
2023-02-11T06:10:46.204Z,3.11
2023-02-11T06:13:16.937Z,3.12
2023-02-11T06:15:55.181Z,3.14
2023-02-11T06:18:26.109Z,3.16
2023-02-11T06:20:56.767Z,3.16
2023-02-11T06:23:30.258Z,3.15
2023-02-11T06:26:04.688Z,3.12
2023-02-11T06:28:35.541Z,3.12
2023-02-11T06:31:10.954Z,3.13
2023-02-11T06:33:41.817Z,3.16
2023-02-11T06:36:18.061Z,3.19
2023-02-11T06:38:49.519Z,3.20
2023-02-11T06:41:20.746Z,3.23
2023-02-11T06:43:52.256Z,3.25
2023-02-11T06:46:23.018Z,3.27
2023-02-11T06:48:53.749Z,3.27
2023-02-11T06:51:24.625Z,3.29
2023-02-11T06:53:55.578Z,3.31
2023-02-11T06:56:26.432Z,3.33
2023-02-11T06:58:57.572Z,3.37
2023-02-11T07:01:27.551Z,3.39
2023-02-11T07:03:58.312Z,3.42
2023-02-11T07:06:29.176Z,3.46
2023-02-11T07:09:00.116Z,3.48
2023-02-11T07:11:31.712Z,3.51
2023-02-11T07:14:04.599Z,3.53
2023-02-11T07:16:35.892Z,3.55
2023-02-11T07:19:06.656Z,3.56
2023-02-11T07:21:37.766Z,3.57
2023-02-11T07:24:10.767Z,3.59
2023-02-11T07:26:42.049Z,3.58
2023-02-11T07:29:12.766Z,3.61
2023-02-11T07:31:43.520Z,3.65
2023-02-11T07:34:14.325Z,3.71
2023-02-11T07:36:44.961Z,3.74
2023-02-11T07:39:15.977Z,3.75
2023-02-11T07:41:46.970Z,3.77
2023-02-11T07:44:17.785Z,3.82
2023-02-11T07:46:48.774Z,3.85
2023-02-11T07:49:19.505Z,3.89
2023-02-11T07:51:50.144Z,3.90
2023-02-11T07:54:20.855Z,3.90
2023-02-11T07:56:51.598Z,3.89
2023-02-11T07:59:22.285Z,3.92
2023-02-11T08:01:53.003Z,3.91
2023-02-11T08:04:23.790Z,3.92
2023-02-11T08:06:56.502Z,3.91
2023-02-11T08:09:28.512Z,3.91
2023-02-11T08:11:59.954Z,3.96
2023-02-11T08:14:30.612Z,4.04
2023-02-11T08:17:01.255Z,4.07
2023-02-11T08:19:34.806Z,4.12
2023-02-11T08:22:05.893Z,4.19
2023-02-11T08:24:36.560Z,4.29
2023-02-11T08:27:07.181Z,4.35
2023-02-11T08:29:37.841Z,4.37
2023-02-11T08:32:08.703Z,4.39
2023-02-11T08:34:39.365Z,4.40
2023-02-11T08:37:10.153Z,4.37
2023-02-11T08:39:40.874Z,4.39
2023-02-11T08:42:11.506Z,4.38
2023-02-11T08:44:43.025Z,4.39
2023-02-11T08:47:13.645Z,4.42
2023-02-11T08:49:44.355Z,4.46
2023-02-11T08:52:15.084Z,4.52
2023-02-11T08:54:45.780Z,4.55
2023-02-11T08:57:16.462Z,4.61
2023-02-11T08:59:47.197Z,4.65
2023-02-11T09:02:18.050Z,4.66
2023-02-11T09:04:48.990Z,4.70
2023-02-11T09:07:19.698Z,4.72
2023-02-11T09:09:50.680Z,4.73
2023-02-11T09:12:21.335Z,4.73
2023-02-11T09:14:55.497Z,4.75
2023-02-11T09:17:26.184Z,4.80
2023-02-11T09:19:56.886Z,4.84
2023-02-11T09:22:27.703Z,4.87
2023-02-11T09:24:58.630Z,4.92
2023-02-11T09:27:29.251Z,4.97
2023-02-11T09:30:00.004Z,5.02
2023-02-11T09:32:30.722Z,5.04
2023-02-11T09:35:01.426Z,5.05
2023-02-11T09:37:32.057Z,5.08
2023-02-11T09:40:03.516Z,5.10
2023-02-11T09:42:47.988Z,5.10
2023-02-11T09:45:24.299Z,5.13
2023-02-11T09:47:59.186Z,5.14
2023-02-11T09:50:34.418Z,5.12
2023-02-11T09:53:10.870Z,5.07
2023-02-11T09:55:43.874Z,5.05
2023-02-11T09:58:16.705Z,5.07
2023-02-11T10:00:54.715Z,5.08
2023-02-11T10:03:44.953Z,5.09
2023-02-11T10:06:39.213Z,5.10
2023-02-11T10:09:34.043Z,5.14
2023-02-11T10:12:33.859Z,5.16
2023-02-11T10:15:18.887Z,5.18
2023-02-11T10:18:04.668Z,5.20
2023-02-11T10:20:38.615Z,5.19
2023-02-11T10:23:16.953Z,5.20
2023-02-11T10:25:50.795Z,5.22
2023-02-11T10:28:23.744Z,5.24
2023-02-11T10:31:02.973Z,5.31
2023-02-11T10:33:41.763Z,5.34
2023-02-11T10:36:13.315Z,5.37
2023-02-11T10:38:44.238Z,5.39
2023-02-11T10:41:21.288Z,5.37
2023-02-11T10:43:52.740Z,5.34
2023-02-11T10:46:29.491Z,5.34
2023-02-11T10:49:00.375Z,5.32
2023-02-11T10:51:32.146Z,5.32
2023-02-11T10:54:19.536Z,5.30
2023-02-11T10:56:58.557Z,5.26
2023-02-11T10:59:32.267Z,5.25
2023-02-11T11:02:04.962Z,5.28
2023-02-11T11:04:39.845Z,5.26
2023-02-11T11:07:20.072Z,5.30
2023-02-11T11:09:53.817Z,5.31
2023-02-11T11:12:30.018Z,5.34
2023-02-11T11:15:02.519Z,5.40
2023-02-11T11:17:33.765Z,5.44
2023-02-11T11:20:19.046Z,5.48
2023-02-11T11:22:49.163Z,5.50
2023-02-11T11:25:28.640Z,5.51
2023-02-11T11:27:59.329Z,5.51
2023-02-11T11:30:36.229Z,5.51
2023-02-11T11:33:13.389Z,5.51
2023-02-11T11:35:42.600Z,5.53
2023-02-11T11:38:14.012Z,5.56
2023-02-11T11:40:43.111Z,5.57
2023-02-11T11:43:17.563Z,5.58
2023-02-11T11:45:56.836Z,5.56
2023-02-11T11:48:28.463Z,5.53
2023-02-11T11:50:58.522Z,5.52
2023-02-11T11:53:29.436Z,5.54
2023-02-11T11:56:00.725Z,5.54
2023-02-11T11:58:31.480Z,5.55
2023-02-11T12:01:06.350Z,5.58
2023-02-11T12:03:52.875Z,5.60
2023-02-11T12:06:26.599Z,5.60
2023-02-11T12:09:01.682Z,5.63
2023-02-11T12:11:34.697Z,5.64
2023-02-11T12:14:12.116Z,5.66
2023-02-11T12:16:45.900Z,5.70
2023-02-11T12:19:31.573Z,5.70
2023-02-11T12:22:07.753Z,5.72
2023-02-11T12:24:50.839Z,5.72
2023-02-11T12:27:23.550Z,5.72
2023-02-11T12:29:59.528Z,5.70
2023-02-11T12:32:32.977Z,5.69
2023-02-11T12:35:15.958Z,5.69
2023-02-11T12:37:55.583Z,5.72
2023-02-11T12:40:27.538Z,5.72
2023-02-11T12:43:04.310Z,5.72
2023-02-11T12:45:41.954Z,5.73
2023-02-11T12:48:24.778Z,5.74
2023-02-11T12:50:56.746Z,5.77
2023-02-11T12:53:42.835Z,5.76
2023-02-11T12:56:14.913Z,5.75
2023-02-11T12:58:45.808Z,5.75
2023-02-11T13:01:19.118Z,5.75
2023-02-11T13:03:51.326Z,5.72
2023-02-11T13:06:22.538Z,5.73
2023-02-11T13:08:54.404Z,5.73
2023-02-11T13:11:25.971Z,5.73
2023-02-11T13:13:56.454Z,5.73
2023-02-11T13:16:33.048Z,5.70
2023-02-11T13:19:07.083Z,5.71
2023-02-11T13:21:40.786Z,5.72
2023-02-11T13:24:22.696Z,5.73
2023-02-11T13:26:57.961Z,5.71
2023-02-11T13:29:30.939Z,5.72
2023-02-11T13:32:07.376Z,5.72
2023-02-11T13:34:56.094Z,5.70
2023-02-11T13:37:26.230Z,5.72
2023-02-11T13:39:59.579Z,5.75
2023-02-11T13:42:28.997Z,5.76
2023-02-11T13:44:58.132Z,5.78
2023-02-11T13:47:29.017Z,5.79
2023-02-11T13:49:59.847Z,5.81
2023-02-11T13:52:30.485Z,5.82
2023-02-11T13:55:02.905Z,5.84
2023-02-11T13:57:36.004Z,5.86
2023-02-11T14:00:29.748Z,5.90
2023-02-11T14:03:15.096Z,5.96
2023-02-11T14:06:07.054Z,6.01
2023-02-11T14:08:38.704Z,6.03
2023-02-11T14:11:09.818Z,6.04
2023-02-11T14:14:02.035Z,6.04
2023-02-11T14:16:38.086Z,6.04
2023-02-11T14:19:08.469Z,6.04
2023-02-11T14:21:39.281Z,6.06
2023-02-11T14:24:25.757Z,6.06
2023-02-11T14:26:57.765Z,6.08
2023-02-11T14:29:32.609Z,6.10
2023-02-11T14:32:06.138Z,6.11
2023-02-11T14:34:43.109Z,6.15
2023-02-11T14:37:18.798Z,6.16
2023-02-11T14:39:53.529Z,6.17
2023-02-11T14:42:24.464Z,6.19
2023-02-11T14:44:55.395Z,6.20
2023-02-11T14:47:28.068Z,6.21
2023-02-11T14:49:57.344Z,6.23
2023-02-11T14:52:28.458Z,6.25
2023-02-11T14:55:13.602Z,6.27
2023-02-11T14:57:42.702Z,6.28
2023-02-11T15:00:19.050Z,6.29
2023-02-11T15:02:48.296Z,6.30
2023-02-11T15:05:20.632Z,6.30
2023-02-11T15:07:51.553Z,6.31
2023-02-11T15:10:31.181Z,6.33
2023-02-11T15:13:01.363Z,6.34
2023-02-11T15:15:31.806Z,6.35
2023-02-11T15:18:02.389Z,6.37
2023-02-11T15:20:33.436Z,6.38
2023-02-11T15:23:03.615Z,6.38
2023-02-11T15:25:34.256Z,6.40
2023-02-11T15:28:10.659Z,6.41
2023-02-11T15:30:39.788Z,6.43
2023-02-11T15:33:21.101Z,6.44
2023-02-11T15:35:50.158Z,6.46
2023-02-11T15:38:19.181Z,6.46
2023-02-11T15:40:59.467Z,6.48
2023-02-11T15:43:41.632Z,6.48
2023-02-11T15:46:13.037Z,6.50
2023-02-11T15:48:44.730Z,6.50
2023-02-11T15:51:18.903Z,6.52
2023-02-11T15:53:50.534Z,6.54
2023-02-11T15:56:21.178Z,6.54
2023-02-11T15:58:51.667Z,6.56
2023-02-11T16:01:28.403Z,6.58
2023-02-11T16:03:57.549Z,6.60
2023-02-11T16:06:27.461Z,6.62
2023-02-11T16:09:01.277Z,6.62
2023-02-11T16:11:32.023Z,6.63
2023-02-11T16:14:01.940Z,6.65
2023-02-11T16:16:31.990Z,6.66
2023-02-11T16:19:05.345Z,6.67
2023-02-11T16:21:35.904Z,6.68
2023-02-11T16:24:06.076Z,6.69
2023-02-11T16:26:37.969Z,6.70
2023-02-11T16:29:10.238Z,6.70
2023-02-11T16:31:40.778Z,6.71
2023-02-11T16:34:14.262Z,6.70
2023-02-11T16:36:43.709Z,6.67
2023-02-11T16:39:13.379Z,6.63
2023-02-11T16:41:42.848Z,6.62
2023-02-11T16:44:12.338Z,6.63
2023-02-11T16:46:41.561Z,6.64
2023-02-11T16:49:16.340Z,6.65
2023-02-11T16:51:47.654Z,6.67
2023-02-11T16:54:17.426Z,6.68
2023-02-11T16:56:46.725Z,6.69
2023-02-11T16:59:15.906Z,6.71
2023-02-11T17:01:45.267Z,6.70
2023-02-11T17:04:17.698Z,6.72
2023-02-11T17:06:46.842Z,6.73
2023-02-11T17:09:18.389Z,6.73
2023-02-11T17:11:48.518Z,6.73
2023-02-11T17:14:18.231Z,6.73
2023-02-11T17:16:47.892Z,6.75
2023-02-11T17:19:57.136Z,6.76
2023-02-11T17:22:07.663Z,6.78
2023-02-11T17:24:37.224Z,6.79
2023-02-11T17:27:06.344Z,6.80
2023-02-11T17:29:35.720Z,6.81
2023-02-11T17:32:04.871Z,6.82
2023-02-11T17:34:33.968Z,6.82
2023-02-11T17:37:03.036Z,6.82
2023-02-11T17:39:32.056Z,6.84
2023-02-11T17:42:01.081Z,6.85
2023-02-11T17:44:30.413Z,6.85
2023-02-11T17:46:59.707Z,6.86
2023-02-11T17:49:28.817Z,6.87
2023-02-11T17:51:58.073Z,6.88
2023-02-11T17:54:27.674Z,6.89
2023-02-11T17:56:58.466Z,6.90
2023-02-11T17:59:27.916Z,6.90
2023-02-11T18:01:57.239Z,6.90
2023-02-11T18:04:26.600Z,6.91
2023-02-11T18:06:55.765Z,6.91
2023-02-11T18:09:25.265Z,6.91
2023-02-11T18:11:54.584Z,6.92
2023-02-11T18:14:23.994Z,6.92
2023-02-11T18:16:53.357Z,6.91
2023-02-11T18:19:22.508Z,6.90
2023-02-11T18:21:51.646Z,6.90
2023-02-11T18:24:20.761Z,6.90
2023-02-11T18:26:50.128Z,6.90
2023-02-11T18:29:19.397Z,6.90
2023-02-11T18:31:48.707Z,6.91
2023-02-11T18:34:17.846Z,6.92
2023-02-11T18:36:47.024Z,6.91
2023-02-11T18:39:16.161Z,6.92
2023-02-11T18:41:45.386Z,6.91
2023-02-11T18:44:14.528Z,6.90
2023-02-11T18:46:43.709Z,6.90
2023-02-11T18:49:13.059Z,6.90
2023-02-11T18:51:42.394Z,6.88
2023-02-11T18:54:11.846Z,6.87
2023-02-11T18:56:41.349Z,6.87
2023-02-11T18:59:10.904Z,6.87
2023-02-11T19:01:40.261Z,6.89
2023-02-11T19:04:09.695Z,6.91
2023-02-11T19:06:39.191Z,6.91
2023-02-11T19:09:09.729Z,6.92
2023-02-11T19:11:39.762Z,6.93
2023-02-11T19:14:09.145Z,6.93
2023-02-11T19:16:38.629Z,6.93
2023-02-11T19:19:08.321Z,6.93
2023-02-11T19:21:37.437Z,6.93
2023-02-11T19:24:07.942Z,6.93
2023-02-11T19:26:37.369Z,6.95
2023-02-11T19:29:06.488Z,6.95
2023-02-11T19:31:35.683Z,6.95
2023-02-11T19:34:04.994Z,6.95
2023-02-11T19:36:34.290Z,6.95
2023-02-11T19:39:04.277Z,6.94
2023-02-11T19:41:33.391Z,6.94
2023-02-11T19:44:03.000Z,6.94
2023-02-11T19:46:33.604Z,6.93
2023-02-11T19:49:03.353Z,6.92
2023-02-11T19:51:32.798Z,6.91
2023-02-11T19:54:02.189Z,6.91
2023-02-11T19:56:31.747Z,6.91
2023-02-11T19:59:01.356Z,6.90
2023-02-11T20:01:30.882Z,6.89
2023-02-11T20:03:59.937Z,6.89
2023-02-11T20:06:30.457Z,6.88
2023-02-11T20:09:00.514Z,6.87
2023-02-11T20:11:30.796Z,6.85
2023-02-11T20:14:00.380Z,6.85
2023-02-11T20:16:46.434Z,6.84
2023-02-11T20:19:17.991Z,6.84
2023-02-11T20:21:48.409Z,6.82
2023-02-11T20:24:18.596Z,6.82
2023-02-11T20:26:47.911Z,6.82
2023-02-11T20:29:17.846Z,6.82
2023-02-11T20:31:48.189Z,6.82
2023-02-11T20:34:17.321Z,6.82
2023-02-11T20:36:46.564Z,6.82
2023-02-11T20:39:15.628Z,6.81
2023-02-11T20:41:45.196Z,6.82
2023-02-11T20:44:14.581Z,6.83
2023-02-11T20:46:45.165Z,6.83
2023-02-11T20:49:15.367Z,6.81
2023-02-11T20:51:44.537Z,6.80
2023-02-11T20:54:14.359Z,6.80
2023-02-11T20:56:46.776Z,6.79
2023-02-11T20:59:17.029Z,6.78
2023-02-11T21:01:47.079Z,6.77
2023-02-11T21:04:17.161Z,6.76
2023-02-11T21:06:47.273Z,6.76
2023-02-11T21:09:18.212Z,6.75
2023-02-11T21:11:49.161Z,6.75
2023-02-11T21:14:18.758Z,6.74
2023-02-11T21:16:48.331Z,6.74
2023-02-11T21:19:18.099Z,6.73
2023-02-11T21:21:47.536Z,6.72
2023-02-11T21:24:16.897Z,6.73
2023-02-11T21:26:45.997Z,6.72
2023-02-11T21:29:15.141Z,6.70
2023-02-11T21:31:44.350Z,6.67
2023-02-11T21:34:13.681Z,6.63
2023-02-11T21:36:42.778Z,6.59
2023-02-11T21:39:12.055Z,6.56
2023-02-11T21:41:41.135Z,6.53
2023-02-11T21:44:10.261Z,6.48
2023-02-11T21:46:39.415Z,6.43
2023-02-11T21:49:09.083Z,6.39
2023-02-11T21:51:39.317Z,6.34
2023-02-11T21:54:08.518Z,6.28
2023-02-11T21:56:37.656Z,6.24
2023-02-11T21:59:06.866Z,6.18
2023-02-11T22:01:35.924Z,6.12
2023-02-11T22:04:05.225Z,6.07
2023-02-11T22:06:34.715Z,6.01
2023-02-11T22:09:04.562Z,5.95
2023-02-11T22:11:33.800Z,5.90
2023-02-11T22:14:02.874Z,5.85
2023-02-11T22:16:32.291Z,5.81
2023-02-11T22:19:01.638Z,5.78
2023-02-11T22:21:30.902Z,5.75
2023-02-11T22:24:00.016Z,5.72
2023-02-11T22:26:29.274Z,5.69
2023-02-11T22:28:58.393Z,5.66
2023-02-11T22:31:28.674Z,5.63
2023-02-11T22:33:58.685Z,5.60
2023-02-11T22:36:29.073Z,5.58
2023-02-11T22:38:59.733Z,5.54
2023-02-11T22:41:28.834Z,5.52
2023-02-11T22:43:57.923Z,5.51
2023-02-11T22:46:27.365Z,5.45
2023-02-11T22:48:56.355Z,5.40
2023-02-11T22:51:26.521Z,5.38
2023-02-11T22:53:56.862Z,5.39
2023-02-11T22:56:26.373Z,5.42
2023-02-11T22:58:57.605Z,5.46
2023-02-11T23:01:26.806Z,5.53
2023-02-11T23:03:56.270Z,5.61
2023-02-11T23:06:25.453Z,5.65
2023-02-11T23:08:54.506Z,5.69
2023-02-11T23:11:24.477Z,5.74
2023-02-11T23:13:54.110Z,5.79
2023-02-11T23:16:24.203Z,5.83
2023-02-11T23:18:53.807Z,5.85
2023-02-11T23:21:24.873Z,5.90
2023-02-11T23:23:56.072Z,5.93
2023-02-11T23:26:25.423Z,5.94
2023-02-11T23:28:55.087Z,5.94
2023-02-11T23:31:27.889Z,5.93
2023-02-11T23:33:57.209Z,5.94
2023-02-11T23:36:26.347Z,5.93
2023-02-11T23:38:55.686Z,5.92
2023-02-11T23:41:26.261Z,5.89
2023-02-11T23:43:56.329Z,5.84
2023-02-11T23:46:26.326Z,5.78
2023-02-11T23:48:55.649Z,5.72
2023-02-11T23:51:24.738Z,5.65
2023-02-11T23:53:53.963Z,5.59
2023-02-11T23:56:24.092Z,5.54
2023-02-11T23:58:54.022Z,5.47
